Time;durP1;ratioP1;P1;durP2;ratioP2;P2;SDS_P1;SDS_P2;PMS_P1;PMS_P2;Temp;Humidity;BMP_temperature;BMP_pressure;BME280_temperature;BME280_humidity;BME280_pressure;Samples;Min_cycle;Max_cycle;Signal;HPM_P1;HPM_P2
2022/12/27 00:02:12;;;;;;;12.17;3.87;;;3.00;91.00;;;;;;5061147;28;20674;-82
2022/12/27 00:04:37;;;;;;;21.00;4.00;;;2.90;91.00;;;;;;5064895;28;20123;-82
2022/12/27 00:07:03;;;;;;;14.70;3.40;;;3.00;91.10;;;;;;5058916;28;20036;-83
2022/12/27 00:09:29;;;;;;;13.77;3.53;;;3.00;91.10;;;;;;5059198;28;20073;-81
2022/12/27 00:11:54;;;;;;;8.30;3.43;;;3.00;91.10;;;;;;5058748;28;20435;-83
2022/12/27 00:14:20;;;;;;;13.70;3.53;;;3.00;91.20;;;;;;5043892;28;20028;-83
2022/12/27 00:16:45;;;;;;;11.97;3.43;;;3.00;91.20;;;;;;5062396;28;20063;-81
2022/12/27 00:19:11;;;;;;;8.63;3.23;;;3.00;91.20;;;;;;5060698;28;20369;-83
2022/12/27 00:21:40;;;;;;;14.00;3.92;;;3.00;91.20;;;;;;5059139;28;20055;-85
2022/12/27 00:24:05;;;;;;;7.53;2.90;;;3.10;91.20;;;;;;5045782;28;20048;-82
2022/12/27 00:26:33;;;;;;;13.17;3.70;;;3.10;91.20;;;;;;5045356;28;20049;-82
2022/12/27 00:29:00;;;;;;;13.93;3.53;;;3.10;91.20;;;;;;5069664;28;20045;-82
2022/12/27 00:31:27;;;;;;;14.33;3.60;;;3.20;91.20;;;;;;5061476;28;20040;-85
2022/12/27 00:33:55;;;;;;;12.30;3.40;;;3.30;91.30;;;;;;5063378;28;20036;-83
2022/12/27 00:36:24;;;;;;;13.97;3.87;;;3.30;91.30;;;;;;5060480;28;20040;-88
2022/12/27 00:38:51;;;;;;;9.97;3.10;;;3.40;91.30;;;;;;5063326;28;20059;-88
2022/12/27 00:41:17;;;;;;;17.93;3.63;;;3.50;91.40;;;;;;5059285;28;20120;-82
2022/12/27 00:43:43;;;;;;;11.13;3.63;;;3.50;91.30;;;;;;5057773;28;20505;-81
2022/12/27 00:46:09;;;;;;;10.60;3.30;;;3.60;91.30;;;;;;5065181;28;20085;-84
2022/12/27 00:48:35;;;;;;;13.73;3.00;;;3.50;91.40;;;;;;5058813;28;20040;-83
2022/12/27 00:51:04;;;;;;;12.53;3.10;;;3.60;91.40;;;;;;5062558;28;20032;-83
2022/12/27 00:53:31;;;;;;;10.37;2.90;;;3.60;91.40;;;;;;5063849;28;20056;-82
2022/12/27 00:55:57;;;;;;;15.67;3.00;;;3.60;91.40;;;;;;5074184;28;20044;-85
2022/12/27 00:58:23;;;;;;;9.93;2.80;;;3.60;91.50;;;;;;5079888;28;20043;-84
2022/12/27 01:00:49;;;;;;;19.30;3.30;;;3.60;91.60;;;;;;5052412;28;20049;-82
2022/12/27 01:03:15;;;;;;;12.80;3.03;;;3.50;91.50;;;;;;5047007;28;20142;-83
2022/12/27 01:05:41;;;;;;;13.10;3.20;;;3.50;91.60;;;;;;5062741;28;20079;-80
2022/12/27 01:08:07;;;;;;;9.70;2.53;;;3.50;91.80;;;;;;5060053;28;20068;-85
2022/12/27 01:10:33;;;;;;;12.97;3.17;;;3.50;91.80;;;;;;5058506;28;20071;-82
2022/12/27 01:13:03;;;;;;;14.70;3.43;;;3.50;91.70;;;;;;5058453;28;20054;-82
2022/12/27 01:15:29;;;;;;;13.53;3.40;;;3.40;91.70;;;;;;5058592;28;20083;-81
2022/12/27 01:17:54;;;;;;;17.20;3.50;;;3.40;91.70;;;;;;5063368;28;20048;-81
2022/12/27 01:20:20;;;;;;;17.97;4.13;;;3.40;91.70;;;;;;5042621;28;20099;-81
2022/12/27 01:22:46;;;;;;;13.63;3.00;;;3.40;91.70;;;;;;5070375;28;20147;-85
2022/12/27 01:25:11;;;;;;;10.83;3.63;;;3.40;91.70;;;;;;5079393;28;20044;-81
2022/12/27 01:27:37;;;;;;;9.80;3.00;;;3.40;91.70;;;;;;5052480;28;20079;-82
2022/12/27 01:30:04;;;;;;;15.90;3.37;;;3.40;91.60;;;;;;5062296;28;20633;-83
2022/12/27 01:32:32;;;;;;;12.63;3.00;;;3.40;91.70;;;;;;5072337;28;20032;-82
2022/12/27 01:34:58;;;;;;;12.67;3.03;;;3.40;91.70;;;;;;5078893;28;20040;-83
2022/12/27 01:37:23;;;;;;;12.47;3.00;;;3.40;91.70;;;;;;5067845;28;20368;-82
2022/12/27 01:39:49;;;;;;;14.40;3.17;;;3.60;91.70;;;;;;5064809;28;20559;-81
2022/12/27 01:45:02;;;;;;;11.20;3.07;;;3.80;91.50;;;;;;5061124;28;20045;-83
2022/12/27 01:47:42;;;;;;;10.80;2.90;;;3.80;91.40;;;;;;5066292;28;20068;-84
2022/12/27 01:50:32;;;;;;;19.17;3.92;;;3.80;91.30;;;;;;5065698;28;20070;-84
2022/12/27 01:53:18;;;;;;;14.13;3.00;;;3.90;91.60;;;;;;5071187;28;20060;-84
2022/12/27 01:55:58;;;;;;;9.13;3.20;;;3.90;91.20;;;;;;5042168;28;20124;-83
2022/12/27 01:58:26;;;;;;;17.23;3.47;;;3.90;91.20;;;;;;5071636;28;20043;-82
2022/12/27 02:00:52;;;;;;;12.25;3.78;;;3.90;91.10;;;;;;5082902;28;20458;-82
2022/12/27 02:03:25;;;;;;;8.32;2.53;;;4.00;91.00;;;;;;5065485;28;20052;-83
2022/12/27 02:05:51;;;;;;;18.25;3.17;;;4.00;91.10;;;;;;5079816;28;21473;-82
2022/12/27 02:08:29;;;;;;;14.68;3.33;;;3.90;90.90;;;;;;5069597;28;20796;-82
2022/12/27 02:10:56;;;;;;;15.00;3.15;;;3.90;90.80;;;;;;5059221;28;20442;-83
2022/12/27 02:13:22;;;;;;;17.27;2.93;;;3.90;91.00;;;;;;5052987;28;20032;-82
2022/12/27 02:15:48;;;;;;;11.63;3.30;;;3.90;90.90;;;;;;5037048;28;20063;-81
2022/12/27 02:18:14;;;;;;;13.00;2.83;;;4.00;90.90;;;;;;5061889;28;20141;-83
2022/12/27 02:21:17;;;;;;;14.77;3.08;;;3.90;90.80;;;;;;5051606;28;20070;-82
2022/12/27 02:24:14;;;;;;;12.73;3.00;;;4.00;90.80;;;;;;5050084;28;20064;-82
2022/12/27 02:27:01;;;;;;;10.90;2.60;;;4.10;90.70;;;;;;5072325;28;20037;-82
2022/12/27 02:29:39;;;;;;;16.57;2.67;;;4.10;90.70;;;;;;5061905;28;20951;-83
2022/12/27 02:32:13;;;;;;;13.60;3.13;;;4.10;90.70;;;;;;5081295;28;20094;-81
2022/12/27 02:34:47;;;;;;;17.77;2.93;;;4.10;90.70;;;;;;5068149;28;20036;-81
2022/12/27 02:37:14;;;;;;;13.63;3.28;;;4.10;90.70;;;;;;5049724;28;20565;-82
2022/12/27 02:39:44;;;;;;;15.77;2.78;;;4.00;90.80;;;;;;5066966;28;20041;-81
2022/12/27 02:53:51;;;;;;;14.67;2.40;;;4.20;91.40;;;;;;5056694;28;20495;-81
2022/12/27 02:59:34;;;;;;;16.60;2.73;;;4.30;91.30;;;;;;5047608;28;20068;-82
2022/12/27 03:05:23;;;;;;;14.77;2.40;;;4.40;91.30;;;;;;5056755;28;20139;-82
2022/12/27 03:08:31;;;;;;;12.93;2.30;;;4.40;91.30;;;;;;5046724;28;20389;-81
2022/12/27 03:16:56;;;;;;;13.57;2.60;;;4.50;91.30;;;;;;5053386;28;20716;-82
2022/12/27 03:33:11;;;;;;;11.82;2.50;;;4.60;90.90;;;;;;5059619;28;20049;-82
2022/12/27 03:33:25;;;;;;;11.43;2.42;;;4.50;91.00;;;;;;5053257;28;20045;-82
2022/12/27 03:38:59;;;;;;;14.55;2.60;;;4.40;91.10;;;;;;5075202;28;20119;-82
2022/12/27 03:44:35;;;;;;;10.13;2.50;;;4.30;91.20;;;;;;5051691;28;20045;-82
2022/12/27 03:47:23;;;;;;;17.37;2.80;;;4.30;91.30;;;;;;5067119;28;20519;-85
2022/12/27 03:50:01;;;;;;;12.55;2.30;;;4.30;91.40;;;;;;5069822;28;20105;-83
2022/12/27 03:52:37;;;;;;;14.43;2.60;;;4.20;91.40;;;;;;5065684;28;20492;-83
2022/12/27 03:55:04;;;;;;;12.95;2.20;;;4.20;91.50;;;;;;5071029;28;20070;-82
2022/12/27 03:57:30;;;;;;;10.57;2.50;;;4.20;91.30;;;;;;5072158;28;20684;-81
2022/12/27 03:59:56;;;;;;;12.05;2.13;;;4.30;91.30;;;;;;5053753;28;20128;-84
2022/12/27 04:02:22;;;;;;;9.47;2.10;;;4.30;91.30;;;;;;5058722;28;21030;-86
2022/12/27 04:04:48;;;;;;;14.93;2.80;;;4.20;91.20;;;;;;5078952;28;20049;-82
2022/12/27 04:07:14;;;;;;;11.80;1.97;;;4.30;91.40;;;;;;5064505;28;20190;-82
2022/12/27 04:37:04;;;;;;;18.48;3.13;;;4.00;92.30;;;;;;5056676;28;20049;-82
2022/12/27 04:39:30;;;;;;;17.45;2.72;;;4.00;92.50;;;;;;5065227;28;20511;-85
2022/12/27 04:56:02;;;;;;;10.67;2.40;;;3.80;92.60;;;;;;5052858;28;20061;-84
2022/12/27 04:58:28;;;;;;;13.03;2.37;;;3.70;92.70;;;;;;5048097;28;20047;-84
2022/12/27 05:03:41;;;;;;;12.27;2.30;;;3.70;92.90;;;;;;5057475;28;20451;-85
2022/12/27 05:06:07;;;;;;;10.37;2.03;;;3.80;93.00;;;;;;5045224;28;20048;-85
2022/12/27 05:14:09;;;;;;;8.70;2.15;;;3.90;92.60;;;;;;5064815;28;20044;-84
2022/12/27 05:16:38;;;;;;;10.90;1.58;;;3.90;92.60;;;;;;5076788;28;20088;-85
2022/12/27 05:19:06;;;;;;;13.55;2.65;;;3.90;92.50;;;;;;5065544;28;20064;-84
2022/12/27 05:25:33;;;;;;;9.00;2.25;;;3.90;92.50;;;;;;5087933;28;20063;-84
2022/12/27 05:27:10;;;;;;;13.37;3.53;;;3.90;92.70;;;;;;5060959;28;20110;-85
2022/12/27 05:29:35;;;;;;;19.85;2.90;;;3.90;92.80;;;;;;5047580;28;20461;-83
2022/12/27 05:32:01;;;;;;;14.18;2.72;;;4.00;92.90;;;;;;5064342;28;20052;-85
2022/12/27 05:34:26;;;;;;;19.27;2.63;;;3.90;93.10;;;;;;5064409;28;20441;-84
2022/12/27 05:36:52;;;;;;;12.25;2.33;;;4.00;93.10;;;;;;5057292;28;20117;-83
2022/12/27 05:39:17;;;;;;;17.00;2.67;;;3.90;93.00;;;;;;5044590;28;20131;-83
2022/12/27 05:41:43;;;;;;;10.97;2.67;;;3.90;93.00;;;;;;5062877;28;20037;-86
2022/12/27 05:44:09;;;;;;;15.17;2.47;;;3.80;93.00;;;;;;5057958;28;20051;-84
2022/12/27 05:46:34;;;;;;;13.03;2.90;;;3.80;92.90;;;;;;5058348;28;22429;-84
2022/12/27 05:49:00;;;;;;;15.90;2.43;;;3.70;92.90;;;;;;5060781;28;20067;-86
2022/12/27 05:51:26;;;;;;;9.73;2.57;;;3.70;92.90;;;;;;5062342;28;20047;-84
2022/12/27 05:53:51;;;;;;;10.77;2.90;;;3.70;93.10;;;;;;5044169;28;21734;-84
2022/12/27 05:56:19;;;;;;;17.47;2.83;;;3.60;93.20;;;;;;5044096;28;20056;-84
2022/12/27 05:58:45;;;;;;;14.77;2.60;;;3.60;93.10;;;;;;5057461;28;20040;-84
2022/12/27 06:01:16;;;;;;;16.40;2.57;;;3.60;93.10;;;;;;5047226;28;20041;-84
2022/12/27 06:03:42;;;;;;;13.93;2.73;;;3.60;93.00;;;;;;5047687;28;20045;-85
2022/12/27 06:06:08;;;;;;;17.23;2.90;;;3.60;92.80;;;;;;5062126;28;20037;-85
2022/12/27 06:08:35;;;;;;;11.30;2.50;;;3.60;92.70;;;;;;5063938;28;20482;-86
2022/12/27 06:11:03;;;;;;;11.73;2.20;;;3.50;92.60;;;;;;5062497;28;20603;-84
2022/12/27 06:13:29;;;;;;;11.27;2.00;;;3.50;92.50;;;;;;5050896;28;20024;-85
2022/12/27 06:15:57;;;;;;;14.47;2.33;;;3.50;92.50;;;;;;5053465;28;20078;-84
2022/12/27 06:18:23;;;;;;;13.57;2.53;;;3.40;92.50;;;;;;5079853;28;20040;-84
2022/12/27 06:20:48;;;;;;;9.10;2.63;;;3.40;92.50;;;;;;5053279;28;20056;-85
2022/12/27 06:23:14;;;;;;;18.33;2.87;;;3.40;92.70;;;;;;5066543;28;20052;-84
2022/12/27 06:25:39;;;;;;;20.07;3.10;;;3.40;92.80;;;;;;5077152;28;20123;-84
2022/12/27 06:28:05;;;;;;;14.60;2.87;;;3.40;92.90;;;;;;5066959;28;20075;-84
2022/12/27 06:30:30;;;;;;;15.37;2.57;;;3.30;92.90;;;;;;5075853;28;20613;-84
2022/12/27 06:32:56;;;;;;;16.97;2.97;;;3.30;93.00;;;;;;5072600;28;20052;-85
2022/12/27 06:35:21;;;;;;;10.10;2.77;;;3.20;93.10;;;;;;5082387;28;20068;-85
2022/12/27 06:37:47;;;;;;;16.83;2.90;;;3.20;93.20;;;;;;5071176;28;20042;-83
2022/12/27 06:40:13;;;;;;;19.83;3.40;;;3.10;93.10;;;;;;5066554;28;20044;-84
2022/12/27 06:42:38;;;;;;;12.13;2.50;;;3.10;93.20;;;;;;5070479;28;20044;-84
2022/12/27 06:45:05;;;;;;;16.47;2.80;;;3.10;93.30;;;;;;5066501;28;20047;-84
2022/12/27 06:47:31;;;;;;;17.33;2.70;;;3.10;93.20;;;;;;5059948;28;20056;-84
2022/12/27 06:49:56;;;;;;;16.63;2.60;;;3.10;93.10;;;;;;5075757;28;20049;-84
2022/12/27 06:52:22;;;;;;;14.73;2.97;;;3.00;93.10;;;;;;5064672;28;20047;-86
2022/12/27 06:54:48;;;;;;;15.40;2.70;;;3.00;93.10;;;;;;5072554;28;20044;-85
2022/12/27 06:57:14;;;;;;;17.87;3.00;;;3.00;93.10;;;;;;5064303;28;20600;-85
2022/12/27 06:59:39;;;;;;;17.03;3.53;;;3.00;93.00;;;;;;5064985;28;20036;-86
2022/12/27 07:02:05;;;;;;;9.57;2.20;;;3.00;93.00;;;;;;5060507;28;20037;-86
2022/12/27 07:04:30;;;;;;;14.53;2.97;;;2.90;93.00;;;;;;5063092;28;20033;-87
2022/12/27 07:06:56;;;;;;;11.30;2.27;;;3.00;93.00;;;;;;5063432;28;20820;-86
2022/12/27 07:09:22;;;;;;;11.63;2.23;;;3.00;93.10;;;;;;5058107;28;20063;-87
2022/12/27 07:11:47;;;;;;;8.13;2.10;;;2.90;93.00;;;;;;5062957;28;20052;-88
2022/12/27 07:14:13;;;;;;;16.03;2.00;;;3.00;93.00;;;;;;5060628;28;20063;-85
2022/12/27 07:16:39;;;;;;;9.83;2.20;;;2.90;93.00;;;;;;5073463;28;20040;-89
2022/12/27 07:19:04;;;;;;;11.70;2.33;;;2.90;93.00;;;;;;5054906;28;20084;-87
2022/12/27 07:21:30;;;;;;;12.03;2.70;;;2.90;93.00;;;;;;5044463;28;20082;-87
2022/12/27 07:23:56;;;;;;;10.63;2.37;;;2.90;93.10;;;;;;5062222;28;20049;-87
2022/12/27 07:26:28;;;;;;;6.57;2.03;;;2.90;93.20;;;;;;5063956;28;20063;-87
2022/12/27 07:29:00;;;;;;;9.07;2.23;;;2.90;93.20;;;;;;5068796;28;20159;-88
2022/12/27 07:31:29;;;;;;;10.23;2.27;;;2.90;93.30;;;;;;5078481;28;20033;-87
2022/12/27 07:33:56;;;;;;;15.10;2.83;;;2.90;93.40;;;;;;5080197;28;20044;-87
2022/12/27 07:36:25;;;;;;;15.23;2.90;;;3.00;93.50;;;;;;5060786;28;20091;-86
2022/12/27 07:38:50;;;;;;;15.45;2.80;;;3.10;93.60;;;;;;5042594;28;20049;-85
2022/12/27 07:41:16;;;;;;;20.90;2.70;;;3.20;93.60;;;;;;5046226;28;20411;-87
2022/12/27 07:43:43;;;;;;;13.93;2.60;;;3.20;93.50;;;;;;5060385;28;20056;-86
2022/12/27 07:46:14;;;;;;;11.37;2.60;;;3.30;93.40;;;;;;5057958;28;20084;-84
2022/12/27 07:48:41;;;;;;;10.83;2.93;;;3.30;93.30;;;;;;5059774;28;20516;-85
2022/12/27 07:51:07;;;;;;;14.83;2.90;;;3.30;93.40;;;;;;5040641;28;20128;-85
2022/12/27 07:53:33;;;;;;;13.87;2.90;;;3.30;93.90;;;;;;5044936;28;20135;-92
2022/12/27 07:56:04;;;;;;;16.87;3.30;;;3.30;93.60;;;;;;5048412;28;20094;-84
2022/12/27 07:58:29;;;;;;;13.27;2.80;;;3.30;93.70;;;;;;5062348;28;20512;-85
2022/12/27 08:00:55;;;;;;;22.20;2.93;;;3.30;94.00;;;;;;5064569;28;20083;-84
2022/12/27 08:03:21;;;;;;;13.20;3.17;;;3.40;93.70;;;;;;5057147;28;20044;-85
2022/12/27 08:05:53;;;;;;;18.80;3.07;;;3.40;93.80;;;;;;5043609;28;20962;-85
2022/12/27 08:08:22;;;;;;;25.63;4.50;;;3.40;93.70;;;;;;5083177;28;20053;-84
2022/12/27 08:10:47;;;;;;;20.80;3.95;;;3.30;93.80;;;;;;5068247;28;20044;-83
2022/12/27 08:13:13;;;;;;;18.03;3.80;;;3.30;93.80;;;;;;5046385;28;20042;-85
2022/12/27 08:15:41;;;;;;;12.37;3.97;;;3.40;93.70;;;;;;5059551;28;20384;-83
2022/12/27 08:18:07;;;;;;;15.88;3.35;;;3.30;93.80;;;;;;5070674;28;20452;-84
2022/12/27 08:20:32;;;;;;;13.60;3.20;;;3.40;93.90;;;;;;5060029;28;20159;-85
2022/12/27 08:22:58;;;;;;;19.30;3.50;;;3.40;93.90;;;;;;5080032;28;20059;-85
2022/12/27 08:25:24;;;;;;;21.63;4.40;;;3.30;93.70;;;;;;5071221;28;20052;-84
2022/12/27 08:27:50;;;;;;;11.97;3.37;;;3.30;93.70;;;;;;5052337;28;20964;-86
2022/12/27 08:30:15;;;;;;;16.43;3.80;;;3.20;93.70;;;;;;5056387;28;20081;-84
2022/12/27 08:32:41;;;;;;;21.73;4.00;;;3.20;93.70;;;;;;5058294;28;20071;-83
2022/12/27 08:35:07;;;;;;;16.67;4.10;;;3.10;93.90;;;;;;5061876;28;20036;-83
2022/12/27 08:37:32;;;;;;;16.83;3.70;;;3.10;93.80;;;;;;5056686;28;20433;-86
2022/12/27 08:39:58;;;;;;;19.70;3.87;;;3.10;94.00;;;;;;5065604;28;20641;-84
2022/12/27 08:42:24;;;;;;;13.10;3.87;;;3.00;93.90;;;;;;5061835;28;20451;-84
2022/12/27 08:44:50;;;;;;;21.00;3.70;;;3.10;94.00;;;;;;5064230;28;20507;-84
2022/12/27 08:47:18;;;;;;;24.33;3.90;;;3.10;93.90;;;;;;5054468;28;20044;-84
2022/12/27 08:49:44;;;;;;;13.17;3.40;;;3.00;93.90;;;;;;5059302;28;20033;-84
2022/12/27 08:52:09;;;;;;;22.07;3.73;;;3.10;94.10;;;;;;5060234;28;20094;-84
2022/12/27 08:54:35;;;;;;;17.57;3.53;;;3.20;94.10;;;;;;5035741;28;20431;-85
2022/12/27 08:57:01;;;;;;;19.27;3.53;;;3.20;94.10;;;;;;5073795;28;20135;-85
2022/12/27 08:59:26;;;;;;;20.57;3.87;;;3.30;94.00;;;;;;5054785;28;20068;-85
2022/12/27 09:01:52;;;;;;;24.63;3.77;;;3.20;94.00;;;;;;5059144;28;20099;-85
2022/12/27 09:04:18;;;;;;;16.43;3.60;;;3.30;94.00;;;;;;5056126;28;20068;-84
2022/12/27 09:06:43;;;;;;;14.83;3.03;;;3.40;94.00;;;;;;5055635;28;20078;-87
2022/12/27 09:09:09;;;;;;;18.03;3.17;;;3.40;94.00;;;;;;5059464;28;20082;-85
2022/12/27 09:11:35;;;;;;;15.97;3.60;;;3.50;93.90;;;;;;5057788;28;20040;-84
2022/12/27 09:14:03;;;;;;;18.77;3.33;;;3.50;94.00;;;;;;5059482;28;20044;-82
2022/12/27 09:16:29;;;;;;;18.02;3.70;;;3.60;93.80;;;;;;5063166;28;20040;-83
2022/12/27 09:18:57;;;;;;;16.83;3.30;;;3.70;93.80;;;;;;5080911;28;20094;-82
2022/12/27 09:21:25;;;;;;;13.43;3.33;;;3.80;93.60;;;;;;5054129;28;20094;-82
2022/12/27 09:23:51;;;;;;;15.77;3.60;;;3.80;93.50;;;;;;5077800;28;20066;-82
2022/12/27 09:26:19;;;;;;;12.93;3.33;;;3.90;93.50;;;;;;5049735;28;20036;-82
2022/12/27 09:28:47;;;;;;;12.63;3.60;;;3.90;93.30;;;;;;5070535;28;20054;-83
2022/12/27 09:31:14;;;;;;;16.98;3.92;;;4.00;93.20;;;;;;5040998;28;20049;-83
2022/12/27 09:33:39;;;;;;;14.30;3.37;;;4.00;93.20;;;;;;5040287;28;20072;-83
2022/12/27 09:36:07;;;;;;;14.53;3.07;;;4.00;93.20;;;;;;5046872;28;20065;-82
2022/12/27 09:38:33;;;;;;;14.88;3.05;;;4.00;93.00;;;;;;5069985;28;20052;-82
2022/12/27 09:41:00;;;;;;;8.90;2.88;;;4.10;93.10;;;;;;5053534;28;20362;-83
2022/12/27 09:43:40;;;;;;;17.20;3.27;;;4.10;93.10;;;;;;5072721;28;20043;-84
2022/12/27 09:46:14;;;;;;;20.27;4.00;;;4.20;93.10;;;;;;5039079;28;20060;-83
2022/12/27 09:48:40;;;;;;;18.25;3.55;;;4.20;92.90;;;;;;5049883;28;20044;-84
2022/12/27 09:51:24;;;;;;;19.35;3.53;;;4.30;93.00;;;;;;5081746;28;20032;-83
2022/12/27 09:54:09;;;;;;;20.48;3.55;;;4.30;93.00;;;;;;5069968;28;20173;-83
2022/12/27 09:56:35;;;;;;;20.43;3.53;;;4.40;92.90;;;;;;5063130;28;20589;-83
2022/12/27 09:59:30;;;;;;;15.43;3.92;;;4.50;92.90;;;;;;5071261;28;20658;-83
2022/12/27 10:01:59;;;;;;;11.68;3.58;;;4.50;92.80;;;;;;5056538;28;20143;-84
2022/12/27 10:04:26;;;;;;;19.52;4.10;;;4.50;92.70;;;;;;5056063;28;20033;-83
2022/12/27 10:06:58;;;;;;;18.05;4.15;;;4.60;92.70;;;;;;5055157;28;20092;-83
2022/12/27 10:09:42;;;;;;;22.58;4.13;;;4.60;92.70;;;;;;5060703;28;20045;-86
2022/12/27 10:12:23;;;;;;;20.88;4.40;;;4.70;92.70;;;;;;5049762;28;20591;-88
2022/12/27 10:14:58;;;;;;;16.17;3.65;;;4.70;92.60;;;;;;5058555;28;20044;-89
2022/12/27 10:18:02;;;;;;;11.75;3.47;;;4.80;92.50;;;;;;5070715;28;20421;-87
2022/12/27 10:20:49;;;;;;;21.48;3.90;;;4.90;92.30;;;;;;5050278;28;20640;-89
2022/12/27 10:23:30;;;;;;;13.32;3.83;;;4.90;92.10;;;;;;5060530;28;20041;-89
2022/12/27 10:25:59;;;;;;;15.00;3.72;;;5.00;92.10;;;;;;5060057;28;20052;-89
2022/12/27 10:28:46;;;;;;;13.68;3.53;;;5.10;91.90;;;;;;5042375;28;20071;-87
2022/12/27 10:31:16;;;;;;;15.48;3.65;;;5.20;91.90;;;;;;5042818;28;20496;-85
2022/12/27 10:33:43;;;;;;;14.18;3.88;;;5.20;91.80;;;;;;5051621;28;20582;-90
2022/12/27 10:36:13;;;;;;;15.23;3.65;;;5.30;91.90;;;;;;5061532;28;20044;-88
2022/12/27 10:38:38;;;;;;;10.00;3.45;;;5.40;91.60;;;;;;5051984;28;20045;-87
2022/12/27 10:41:38;;;;;;;14.15;3.28;;;5.50;91.50;;;;;;5059096;28;20048;-84
2022/12/27 10:44:11;;;;;;;15.52;3.70;;;5.60;90.70;;;;;;5058521;28;20041;-87
2022/12/27 10:46:40;;;;;;;14.18;3.33;;;5.80;91.00;;;;;;5060992;28;20041;-87
2022/12/27 10:49:19;;;;;;;14.60;3.28;;;5.80;90.80;;;;;;5058662;28;20059;-86
2022/12/27 10:51:45;;;;;;;17.25;3.10;;;5.90;90.70;;;;;;5041523;28;20052;-85
2022/12/27 10:54:12;;;;;;;19.00;3.15;;;6.00;90.70;;;;;;5060632;28;20048;-83
2022/12/27 10:56:40;;;;;;;10.57;3.20;;;6.10;90.40;;;;;;5055599;28;20037;-84
2022/12/27 10:59:20;;;;;;;13.02;3.33;;;6.10;90.40;;;;;;5041263;28;20071;-85
2022/12/27 11:02:15;;;;;;;10.50;2.97;;;6.20;90.30;;;;;;5063552;28;20060;-85
2022/12/27 11:04:58;;;;;;;11.18;2.80;;;6.20;90.30;;;;;;5066518;28;20051;-84
2022/12/27 11:07:29;;;;;;;15.45;2.83;;;6.30;90.20;;;;;;5058908;28;20427;-85
2022/12/27 11:10:14;;;;;;;14.52;3.78;;;6.30;90.20;;;;;;5060271;28;20065;-86
2022/12/27 11:12:53;;;;;;;15.85;3.17;;;6.40;90.70;;;;;;5058402;28;20045;-87
2022/12/27 11:15:19;;;;;;;20.80;3.63;;;6.40;90.10;;;;;;5050418;28;20036;-88
2022/12/27 11:18:11;;;;;;;12.45;3.15;;;6.40;90.00;;;;;;5047500;28;20052;-86
2022/12/27 11:20:47;;;;;;;16.10;3.60;;;6.40;90.00;;;;;;5064414;28;20058;-86
2022/12/27 11:23:15;;;;;;;12.30;3.10;;;6.40;90.00;;;;;;5061969;28;20044;-87
2022/12/27 11:26:03;;;;;;;14.80;3.75;;;6.40;90.10;;;;;;5063180;28;20094;-86
2022/12/27 11:28:38;;;;;;;14.70;2.95;;;6.40;89.80;;;;;;5045053;28;20049;-86
2022/12/27 11:31:08;;;;;;;14.57;3.47;;;6.50;90.20;;;;;;5062313;28;20436;-84
2022/12/27 11:33:51;;;;;;;9.40;2.70;;;6.60;90.30;;;;;;5064373;28;20038;-87
2022/12/27 11:36:39;;;;;;;14.85;3.00;;;6.60;89.20;;;;;;5062372;28;20086;-87
2022/12/27 11:39:06;;;;;;;14.70;3.05;;;6.60;88.90;;;;;;5062312;28;20041;-88
2022/12/27 11:41:36;;;;;;;13.13;3.08;;;6.70;89.40;;;;;;5059776;28;20049;-88
2022/12/27 11:44:04;;;;;;;15.75;2.90;;;6.80;88.40;;;;;;5044011;28;20052;-87
2022/12/27 11:46:41;;;;;;;15.82;3.20;;;6.80;87.70;;;;;;5062500;28;20045;-84
2022/12/27 11:49:16;;;;;;;12.00;2.63;;;6.60;86.90;;;;;;5061590;28;20036;-86
2022/12/27 11:52:16;;;;;;;13.65;2.72;;;6.60;87.40;;;;;;5035120;28;20704;-86
2022/12/27 11:54:50;;;;;;;19.65;2.83;;;6.60;87.20;;;;;;5059398;28;20040;-86
2022/12/27 11:57:45;;;;;;;13.60;3.28;;;6.60;87.20;;;;;;5061000;28;20162;-86
2022/12/27 12:00:21;;;;;;;7.45;2.20;;;6.70;87.10;;;;;;5054954;28;20060;-87
2022/12/27 12:03:11;;;;;;;15.68;3.17;;;6.70;86.60;;;;;;5062325;28;20624;-87
2022/12/27 12:05:55;;;;;;;13.13;2.60;;;6.70;86.70;;;;;;5064250;28;20036;-88
2022/12/27 12:08:36;;;;;;;12.95;2.40;;;6.70;86.00;;;;;;5062727;28;20082;-86
2022/12/27 12:11:26;;;;;;;22.58;3.25;;;6.70;87.60;;;;;;5050634;28;20255;-85
2022/12/27 12:14:23;;;;;;;12.30;2.58;;;6.70;86.30;;;;;;5060818;28;20060;-87
2022/12/27 12:17:11;;;;;;;11.98;2.38;;;6.80;86.70;;;;;;5042945;28;20041;-87
2022/12/27 12:19:53;;;;;;;11.75;2.42;;;6.70;85.80;;;;;;5070572;28;20041;-83
2022/12/27 12:22:54;;;;;;;16.25;2.70;;;6.70;86.20;;;;;;5046905;28;20036;-86
2022/12/27 12:25:23;;;;;;;12.60;2.30;;;6.70;85.90;;;;;;5063077;28;20044;-83
2022/12/27 12:28:31;;;;;;;14.70;2.30;;;6.70;86.20;;;;;;5061001;28;20076;-84
2022/12/27 12:31:20;;;;;;;19.88;2.58;;;6.60;86.30;;;;;;5046291;28;20076;-83
2022/12/27 12:34:16;;;;;;;19.17;2.78;;;6.60;86.60;;;;;;5058392;28;20048;-82
2022/12/27 12:37:10;;;;;;;16.95;3.40;;;6.60;86.00;;;;;;5044442;28;20729;-83
2022/12/27 12:40:26;;;;;;;12.75;2.38;;;6.70;85.40;;;;;;5034097;28;20067;-83
2022/12/27 12:43:24;;;;;;;8.90;2.22;;;6.60;85.60;;;;;;5050453;28;20049;-83
2022/12/27 12:46:11;;;;;;;9.03;2.27;;;6.60;85.70;;;;;;5045071;28;20052;-83
2022/12/27 12:48:49;;;;;;;12.35;2.78;;;6.60;86.10;;;;;;5062158;28;20044;-85
2022/12/27 12:51:28;;;;;;;10.13;2.47;;;6.50;86.30;;;;;;5056085;28;20098;-86
2022/12/27 12:53:54;;;;;;;14.70;2.40;;;6.40;86.40;;;;;;5052530;28;20032;-88
2022/12/27 12:56:26;;;;;;;13.48;2.58;;;6.40;87.10;;;;;;5056438;28;20074;-85
2022/12/27 12:59:23;;;;;;;8.45;2.60;;;6.40;87.60;;;;;;5053887;28;20086;-85
2022/12/27 13:02:13;;;;;;;14.15;2.60;;;6.40;87.80;;;;;;5037587;28;20261;-87
2022/12/27 13:04:54;;;;;;;12.93;2.55;;;6.30;88.10;;;;;;5041645;28;20037;-84
2022/12/27 13:07:49;;;;;;;16.65;2.90;;;6.30;88.20;;;;;;5056677;28;20056;-82
2022/12/27 13:10:46;;;;;;;15.57;2.80;;;6.30;88.10;;;;;;5058152;28;20398;-83
2022/12/27 13:13:24;;;;;;;15.77;3.00;;;6.30;88.50;;;;;;5042660;28;20497;-83
2022/12/27 13:16:11;;;;;;;17.00;2.80;;;6.30;88.50;;;;;;5050728;28;20049;-83
2022/12/27 13:19:10;;;;;;;12.00;2.67;;;6.30;88.60;;;;;;5073443;28;20301;-82
2022/12/27 13:22:11;;;;;;;11.52;3.05;;;6.30;88.60;;;;;;5055136;28;20439;-83
2022/12/27 13:25:09;;;;;;;15.75;3.33;;;6.40;88.90;;;;;;5055970;28;20496;-83
2022/12/27 13:27:53;;;;;;;16.10;3.53;;;6.40;88.90;;;;;;5062386;28;20508;-87
2022/12/27 13:30:50;;;;;;;13.77;3.35;;;6.40;89.10;;;;;;5058926;28;20298;-83
2022/12/27 13:33:47;;;;;;;16.45;3.22;;;6.50;88.90;;;;;;5041370;28;20125;-82
2022/12/27 13:36:47;;;;;;;16.50;3.45;;;6.40;89.10;;;;;;5059328;28;20567;-82
2022/12/27 13:39:31;;;;;;;12.07;3.92;;;6.40;89.30;;;;;;5058286;28;20443;-83
2022/12/27 13:42:23;;;;;;;17.05;3.80;;;6.40;89.10;;;;;;5058037;28;20048;-82
2022/12/27 13:45:16;;;;;;;14.18;4.05;;;6.40;89.10;;;;;;5069111;28;20408;-82
2022/12/27 13:47:59;;;;;;;16.02;4.20;;;6.40;89.10;;;;;;5054615;28;20481;-83
2022/12/27 13:50:45;;;;;;;14.68;3.97;;;6.40;88.90;;;;;;5065422;28;20105;-84
2022/12/27 13:53:49;;;;;;;19.85;4.22;;;6.30;89.10;;;;;;5050199;28;20472;-81
2022/12/27 13:56:39;;;;;;;15.50;4.20;;;6.30;89.40;;;;;;5055970;28;20036;-82
2022/12/27 13:59:27;;;;;;;10.27;3.35;;;6.30;89.60;;;;;;5058284;28;20032;-82
2022/12/27 14:02:31;;;;;;;11.93;3.80;;;6.30;89.60;;;;;;5058295;28;20041;-81
2022/12/27 14:05:15;;;;;;;17.35;4.28;;;6.20;89.40;;;;;;5004444;28;20472;-81
2022/12/27 14:08:05;;;;;;;14.65;3.92;;;6.20;89.60;;;;;;5008000;28;20041;-81
2022/12/27 14:10:51;;;;;;;16.10;3.83;;;6.20;89.70;;;;;;5049388;28;20080;-80
2022/12/27 14:13:39;;;;;;;16.60;4.15;;;6.20;89.70;;;;;;5056771;28;20040;-80
2022/12/27 14:16:05;;;;;;;;;;;6.20;89.90;;;;;;5061344;28;20091;-81
2022/12/27 14:18:55;;;;;;;18.70;4.80;;;6.20;89.80;;;;;;5061816;28;19975;-81
2022/12/27 14:21:40;;;;;;;16.65;4.43;;;6.20;90.00;;;;;;5059671;28;20045;-80
2022/12/27 14:24:54;;;;;;;15.55;4.75;;;6.20;90.00;;;;;;5060227;28;20179;-81
2022/12/27 14:27:39;;;;;;;20.33;4.97;;;6.20;89.90;;;;;;5022211;28;20048;-81
2022/12/27 14:30:39;;;;;;;17.77;5.15;;;6.20;90.00;;;;;;5057549;28;20493;-81
2022/12/27 14:33:29;;;;;;;14.18;6.35;;;6.20;90.00;;;;;;5070440;28;20048;-80
2022/12/27 14:36:30;;;;;;;19.42;7.22;;;6.20;90.10;;;;;;5083688;28;20048;-81
2022/12/27 14:39:14;;;;;;;21.13;7.53;;;6.20;90.10;;;;;;5041787;28;20694;-81
2022/12/27 14:42:13;;;;;;;24.38;8.90;;;6.20;90.10;;;;;;5058833;28;20561;-81
2022/12/27 14:45:15;;;;;;;18.33;8.98;;;6.10;90.10;;;;;;5029474;28;20056;-80
2022/12/27 14:48:06;;;;;;;19.58;9.40;;;6.10;90.10;;;;;;5059578;28;20051;-80
2022/12/27 14:51:00;;;;;;;21.08;9.88;;;6.00;90.20;;;;;;5059195;28;20680;-81
2022/12/27 14:53:54;;;;;;;22.08;10.38;;;6.00;90.40;;;;;;5059815;28;20045;-82
2022/12/27 14:56:35;;;;;;;21.20;10.77;;;6.00;90.50;;;;;;5058057;28;20044;-81
2022/12/27 14:59:20;;;;;;;20.67;11.20;;;6.00;90.60;;;;;;5055825;28;21188;-81
2022/12/27 15:01:54;;;;;;;24.80;11.80;;;6.00;90.60;;;;;;5051127;28;20123;-80